Time;durP1;ratioP1;P1;durP2;ratioP2;P2;SDS_P1;SDS_P2;PMS_P1;PMS_P2;Temp;Humidity;BMP_temperature;BMP_pressure;BME280_temperature;BME280_humidity;BME280_pressure;Samples;Min_cycle;Max_cycle;Signal;HPM_P1;HPM_P2
2022/06/01 00:01:44;;;;;;;8.50;5.28;;;12.40;99.90;;;;;;5030506;28;20052;-74
2022/06/01 00:04:10;;;;;;;8.55;4.70;;;12.40;99.90;;;;;;5028424;28;20039;-75
2022/06/01 00:06:35;;;;;;;9.23;4.50;;;12.40;99.90;;;;;;5030399;28;20038;-75
2022/06/01 00:09:02;;;;;;;9.55;4.70;;;12.50;99.90;;;;;;5028973;28;20044;-74
2022/06/01 00:11:28;;;;;;;8.15;4.90;;;12.50;99.90;;;;;;5030719;28;20061;-74
2022/06/01 00:13:54;;;;;;;8.02;4.47;;;12.40;99.90;;;;;;5029345;28;20454;-74
2022/06/01 00:16:21;;;;;;;8.15;5.50;;;12.20;99.90;;;;;;5026993;28;20296;-75
2022/06/01 00:18:47;;;;;;;12.05;5.07;;;12.00;99.90;;;;;;5028917;28;20037;-75
2022/06/01 00:21:12;;;;;;;9.68;4.85;;;11.90;99.90;;;;;;5027395;28;20091;-77
2022/06/01 00:23:38;;;;;;;8.10;5.03;;;11.80;99.90;;;;;;5032025;28;20039;-74
2022/06/01 00:26:04;;;;;;;8.23;5.32;;;11.80;99.90;;;;;;5028107;28;20032;-76
2022/06/01 00:28:30;;;;;;;9.73;5.20;;;11.70;99.90;;;;;;5027032;28;20034;-73
2022/06/01 00:30:56;;;;;;;11.15;5.38;;;11.70;99.90;;;;;;5011525;28;20033;-75
2022/06/01 00:33:22;;;;;;;8.38;5.35;;;11.60;99.90;;;;;;5029709;28;20068;-75
2022/06/01 00:35:47;;;;;;;10.23;5.75;;;11.50;99.90;;;;;;5027814;28;20482;-74
2022/06/01 00:38:14;;;;;;;8.10;5.57;;;11.60;99.90;;;;;;5026076;28;20492;-74
2022/06/01 00:40:40;;;;;;;7.60;4.95;;;11.50;99.90;;;;;;5025516;28;20049;-75
2022/06/01 00:43:44;;;;;;;8.55;5.68;;;11.40;99.90;;;;;;5030322;28;20036;-72
2022/06/01 00:46:11;;;;;;;10.13;5.30;;;11.40;99.90;;;;;;5030707;28;20061;-75
2022/06/01 00:48:43;;;;;;;12.05;5.65;;;11.40;99.90;;;;;;5028790;28;20544;-75
2022/06/01 00:51:11;;;;;;;8.25;5.45;;;11.40;99.90;;;;;;5027831;28;20132;-75
2022/06/01 00:53:38;;;;;;;10.10;5.95;;;11.40;99.90;;;;;;5026891;28;20037;-74
2022/06/01 00:56:09;;;;;;;11.55;5.60;;;11.50;99.90;;;;;;5013206;28;20048;-75
2022/06/01 00:58:42;;;;;;;11.50;5.65;;;11.40;99.90;;;;;;5010049;28;20041;-74
2022/06/01 01:01:11;;;;;;;10.25;5.43;;;11.50;99.90;;;;;;5028367;28;20044;-78
2022/06/01 01:03:42;;;;;;;10.57;6.13;;;11.50;99.90;;;;;;5011007;28;20125;-75
2022/06/01 01:06:23;;;;;;;14.65;5.57;;;11.60;99.90;;;;;;5010591;28;20107;-74
2022/06/01 01:08:49;;;;;;;11.85;5.20;;;11.50;99.90;;;;;;5032040;28;20036;-76
2022/06/01 01:11:19;;;;;;;7.82;5.13;;;11.40;99.90;;;;;;5028745;28;20021;-76
2022/06/01 01:13:48;;;;;;;10.20;5.68;;;11.40;99.90;;;;;;5028847;28;20401;-74
2022/06/01 01:16:15;;;;;;;9.05;5.03;;;11.40;99.90;;;;;;5027774;28;20029;-75
2022/06/01 01:18:44;;;;;;;9.13;5.18;;;11.40;99.90;;;;;;5030801;28;20037;-74
2022/06/01 01:21:44;;;;;;;7.78;5.05;;;11.30;99.90;;;;;;5028258;28;20033;-75
2022/06/01 01:25:07;;;;;;;13.43;5.40;;;11.20;99.90;;;;;;5025965;28;20025;-75
2022/06/01 01:27:33;;;;;;;9.43;5.65;;;11.10;99.90;;;;;;5024230;28;20494;-75
2022/06/01 01:29:59;;;;;;;8.48;5.40;;;11.00;99.90;;;;;;5027859;28;20028;-74
2022/06/01 01:32:24;;;;;;;8.93;5.10;;;11.10;99.90;;;;;;5027123;28;20105;-74
2022/06/01 01:34:50;;;;;;;11.30;5.50;;;11.10;99.90;;;;;;5009904;28;20494;-74
2022/06/01 01:37:21;;;;;;;9.05;5.53;;;11.10;99.90;;;;;;5026824;28;20430;-77
2022/06/01 01:39:46;;;;;;;;;;;11.00;99.90;;;;;;5012496;28;20064;-72
2022/06/01 01:42:12;;;;;;;8.35;5.57;;;10.90;99.90;;;;;;5028914;28;19952;-75
2022/06/01 01:45:10;;;;;;;11.27;5.25;;;10.90;99.90;;;;;;5008566;28;20032;-75
2022/06/01 01:47:37;;;;;;;9.32;5.38;;;10.80;99.90;;;;;;5026630;28;20103;-75
2022/06/01 01:50:07;;;;;;;9.27;5.18;;;10.90;99.90;;;;;;5029347;28;20064;-74
2022/06/01 01:52:33;;;;;;;10.07;5.20;;;10.90;99.90;;;;;;5028165;28;20113;-75
2022/06/01 01:55:06;;;;;;;12.07;6.22;;;11.00;99.90;;;;;;5027370;28;20453;-74
2022/06/01 01:58:20;;;;;;;10.90;5.15;;;11.00;99.90;;;;;;5025233;28;20037;-75
2022/06/01 02:00:52;;;;;;;13.15;5.97;;;11.00;99.90;;;;;;4979240;28;20081;-75
2022/06/01 02:03:46;;;;;;;8.27;5.10;;;11.10;99.90;;;;;;4985929;28;20446;-76
2022/06/01 02:06:12;;;;;;;9.95;5.47;;;11.10;99.90;;;;;;5013418;28;20397;-76
2022/06/01 02:08:49;;;;;;;9.52;5.50;;;10.90;99.90;;;;;;5026851;28;20029;-75
2022/06/01 02:14:32;;;;;;;9.18;5.65;;;10.60;99.90;;;;;;5011770;28;20056;-75
2022/06/01 02:17:03;;;;;;;12.50;5.60;;;10.50;99.90;;;;;;5022964;28;20105;-75
2022/06/01 02:19:42;;;;;;;9.68;5.78;;;10.40;99.90;;;;;;5026254;28;20516;-74
2022/06/01 02:22:10;;;;;;;12.48;5.80;;;10.50;99.90;;;;;;5022793;28;20456;-76
2022/06/01 02:24:37;;;;;;;8.77;5.85;;;10.50;99.90;;;;;;5012214;28;20097;-75
2022/06/01 02:27:04;;;;;;;9.25;6.18;;;10.40;99.90;;;;;;5025972;28;20029;-74
2022/06/01 02:29:35;;;;;;;9.23;5.75;;;10.40;99.90;;;;;;5009981;28;20033;-74
2022/06/01 02:32:03;;;;;;;9.45;6.10;;;10.40;99.90;;;;;;5026735;28;20026;-75
2022/06/01 02:34:30;;;;;;;12.75;5.50;;;10.40;99.90;;;;;;5026932;28;20033;-75
2022/06/01 02:36:58;;;;;;;9.57;6.15;;;10.40;99.90;;;;;;5026010;28;20017;-74
2022/06/01 02:39:25;;;;;;;8.45;5.53;;;10.40;99.90;;;;;;5024907;28;20116;-76
2022/06/01 02:44:35;;;;;;;8.75;6.10;;;10.30;99.90;;;;;;5023610;28;20052;-74
2022/06/01 02:47:00;;;;;;;11.35;6.20;;;10.30;99.90;;;;;;5027417;28;20462;-74
2022/06/01 02:49:26;;;;;;;10.75;6.32;;;10.30;99.90;;;;;;5029537;28;20078;-75
2022/06/01 02:51:52;;;;;;;11.07;6.00;;;10.10;99.90;;;;;;5031134;28;20029;-73
2022/06/01 02:54:18;;;;;;;13.43;6.55;;;10.10;99.90;;;;;;5030281;28;20033;-74
2022/06/01 02:56:43;;;;;;;13.88;6.47;;;10.00;99.90;;;;;;5030588;28;20484;-75
2022/06/01 02:59:09;;;;;;;11.13;6.43;;;10.10;99.90;;;;;;5030114;28;20621;-73
2022/06/01 03:01:36;;;;;;;12.00;6.00;;;10.10;99.90;;;;;;5031058;28;20026;-73
2022/06/01 03:04:03;;;;;;;12.05;6.25;;;10.10;99.90;;;;;;5031110;28;20083;-75
2022/06/01 03:06:28;;;;;;;10.82;6.28;;;10.10;99.90;;;;;;5028535;28;20026;-74
2022/06/01 03:08:54;;;;;;;8.65;5.82;;;10.10;99.90;;;;;;5030150;28;20052;-73
2022/06/01 03:11:20;;;;;;;10.32;5.85;;;10.10;99.90;;;;;;5031900;28;20029;-77
2022/06/01 03:13:45;;;;;;;10.38;6.00;;;10.10;99.90;;;;;;5028514;28;20394;-74
2022/06/01 03:16:11;;;;;;;11.55;6.25;;;10.00;99.90;;;;;;5031425;28;20078;-75
2022/06/01 03:18:36;;;;;;;11.05;6.30;;;9.90;99.90;;;;;;5029698;28;20753;-74
2022/06/01 03:21:03;;;;;;;12.38;6.32;;;9.90;99.90;;;;;;5031558;28;20029;-73
2022/06/01 03:23:29;;;;;;;11.02;6.00;;;9.80;99.90;;;;;;5029009;28;20120;-75
2022/06/01 03:25:55;;;;;;;11.00;5.68;;;9.70;99.90;;;;;;5013545;28;20030;-75
2022/06/01 03:28:21;;;;;;;9.20;5.90;;;9.70;99.90;;;;;;5030912;28;20033;-75
2022/06/01 03:30:47;;;;;;;9.75;5.75;;;9.70;99.90;;;;;;5012896;28;20029;-75
2022/06/01 03:33:13;;;;;;;10.40;6.00;;;9.60;99.90;;;;;;5011241;28;20034;-75
2022/06/01 03:35:40;;;;;;;9.68;5.57;;;9.60;99.90;;;;;;5029695;28;20044;-74
2022/06/01 03:38:06;;;;;;;9.25;5.57;;;9.50;99.90;;;;;;5030159;28;20145;-73
2022/06/01 03:40:33;;;;;;;11.75;5.57;;;9.50;99.90;;;;;;5030167;28;20045;-74
2022/06/01 03:42:59;;;;;;;9.35;5.80;;;9.50;99.90;;;;;;5031189;28;20040;-74
2022/06/01 03:48:10;;;;;;;8.15;5.57;;;9.60;99.90;;;;;;5031050;28;20044;-75
2022/06/01 03:50:35;;;;;;;14.45;5.63;;;9.60;99.90;;;;;;5029945;28;20022;-75
2022/06/01 03:53:02;;;;;;;9.00;5.80;;;9.50;99.90;;;;;;5029889;28;20037;-73
2022/06/01 03:55:29;;;;;;;9.20;5.72;;;9.50;99.90;;;;;;5030155;28;20115;-75
2022/06/01 03:57:55;;;;;;;9.50;5.60;;;9.30;99.90;;;;;;5030626;28;20060;-76
2022/06/01 04:00:25;;;;;;;9.35;6.43;;;9.30;99.90;;;;;;5012449;28;20038;-75
2022/06/01 04:02:51;;;;;;;8.70;5.57;;;9.30;99.90;;;;;;5029633;28;20036;-75
2022/06/01 04:05:18;;;;;;;8.55;5.55;;;9.30;99.90;;;;;;5012746;28;20272;-75
2022/06/01 04:07:44;;;;;;;10.18;5.40;;;9.30;99.90;;;;;;5028302;28;20033;-74
2022/06/01 04:10:11;;;;;;;9.23;5.43;;;9.40;99.90;;;;;;5030693;28;20064;-74
2022/06/01 04:12:37;;;;;;;12.27;5.95;;;9.40;99.90;;;;;;5029452;28;20124;-75
2022/06/01 04:15:04;;;;;;;8.38;5.47;;;9.50;99.90;;;;;;5009974;28;20199;-75
2022/06/01 04:17:30;;;;;;;9.10;5.68;;;9.50;99.90;;;;;;5028954;28;20033;-75
2022/06/01 04:19:55;;;;;;;11.15;5.65;;;9.60;99.90;;;;;;5029251;28;20399;-75
2022/06/01 04:22:22;;;;;;;11.70;6.20;;;9.70;99.90;;;;;;5030203;28;20136;-75
2022/06/01 04:24:47;;;;;;;9.82;5.75;;;9.90;99.90;;;;;;5027785;28;20036;-73
2022/06/01 04:27:13;;;;;;;9.60;5.70;;;10.10;99.90;;;;;;5010786;28;20038;-73
2022/06/01 04:29:39;;;;;;;10.10;5.63;;;10.20;99.90;;;;;;5029057;28;20454;-73
2022/06/01 04:32:09;;;;;;;13.10;6.18;;;10.30;99.90;;;;;;5012324;28;20116;-73
2022/06/01 04:34:35;;;;;;;7.88;5.47;;;10.50;99.90;;;;;;5029080;28;20120;-75
2022/06/01 04:37:01;;;;;;;9.02;5.53;;;10.60;99.90;;;;;;5029534;28;20083;-75
2022/06/01 04:39:26;;;;;;;11.50;5.85;;;10.80;99.90;;;;;;5029744;28;20457;-78
2022/06/01 04:41:52;;;;;;;11.98;5.18;;;10.80;99.90;;;;;;5029621;28;20080;-75
2022/06/01 04:44:19;;;;;;;8.60;5.75;;;11.10;99.90;;;;;;5029246;28;20040;-73
2022/06/01 04:46:45;;;;;;;8.70;5.45;;;11.30;99.90;;;;;;5029093;28;20352;-75
2022/06/01 04:49:11;;;;;;;9.32;5.25;;;11.50;99.90;;;;;;5030145;28;20053;-74
2022/06/01 04:51:37;;;;;;;8.95;5.20;;;11.40;99.90;;;;;;5029314;28;20463;-73
2022/06/01 04:54:04;;;;;;;7.63;5.20;;;11.30;99.90;;;;;;5029494;28;20075;-73
2022/06/01 04:56:30;;;;;;;8.70;5.45;;;11.30;99.90;;;;;;5029641;28;20045;-77
2022/06/01 04:58:56;;;;;;;11.30;5.07;;;11.50;99.90;;;;;;5028799;28;20060;-76
2022/06/01 05:01:21;;;;;;;7.82;5.20;;;11.50;99.90;;;;;;5029702;28;20080;-74
2022/06/01 05:03:48;;;;;;;8.45;5.85;;;11.70;99.90;;;;;;5028662;28;20635;-74
2022/06/01 05:06:14;;;;;;;10.88;5.43;;;11.90;99.90;;;;;;5029016;28;20112;-74
2022/06/01 05:08:39;;;;;;;9.68;5.63;;;12.00;99.90;;;;;;5028799;28;20112;-75
2022/06/01 05:11:05;;;;;;;7.18;4.78;;;12.20;99.90;;;;;;5028711;28;20108;-74
2022/06/01 05:13:31;;;;;;;11.93;6.00;;;12.40;99.90;;;;;;5028854;28;20041;-76
2022/06/01 05:15:59;;;;;;;12.88;7.43;;;12.60;99.90;;;;;;5029423;28;20130;-74
2022/06/01 05:18:26;;;;;;;12.55;7.38;;;12.70;99.90;;;;;;5029363;28;20033;-76
2022/06/01 05:20:55;;;;;;;17.63;8.18;;;12.80;99.90;;;;;;5009951;28;20029;-72
2022/06/01 05:23:22;;;;;;;15.45;8.20;;;12.70;99.90;;;;;;5029290;28;20041;-74
2022/06/01 05:25:49;;;;;;;13.32;7.97;;;12.80;99.90;;;;;;5028347;28;20452;-77
2022/06/01 05:28:24;;;;;;;16.75;8.48;;;12.80;99.90;;;;;;5025709;28;20029;-73
2022/06/01 05:30:50;;;;;;;16.15;7.57;;;12.80;99.90;;;;;;5028128;28;20030;-74
2022/06/01 05:33:15;;;;;;;14.73;8.32;;;13.00;99.90;;;;;;5028830;28;20033;-74
2022/06/01 05:35:41;;;;;;;13.48;7.35;;;13.30;99.90;;;;;;5027330;28;20034;-75
2022/06/01 05:38:07;;;;;;;14.85;8.10;;;13.50;99.90;;;;;;5029333;28;20450;-75
2022/06/01 05:40:33;;;;;;;18.75;7.95;;;13.60;99.90;;;;;;5028296;28;20049;-77
2022/06/01 05:42:59;;;;;;;13.13;7.47;;;13.60;99.90;;;;;;5028983;28;20037;-74
2022/06/01 05:45:25;;;;;;;14.10;7.78;;;13.80;99.90;;;;;;5011138;28;20383;-75
2022/06/01 05:47:51;;;;;;;13.13;7.35;;;14.00;99.90;;;;;;5028409;28;20043;-75
2022/06/01 05:50:17;;;;;;;11.90;7.03;;;14.20;99.90;;;;;;5028303;28;20390;-75
2022/06/01 05:52:42;;;;;;;11.20;7.20;;;14.40;99.90;;;;;;5027935;28;20033;-77
2022/06/01 05:55:11;;;;;;;12.23;6.90;;;14.50;99.90;;;;;;5028314;28;20041;-76
2022/06/01 05:57:37;;;;;;;10.23;6.65;;;14.70;99.90;;;;;;5028068;28;20037;-76
2022/06/01 06:00:06;;;;;;;10.68;6.72;;;14.80;99.90;;;;;;5028850;28;20044;-75
2022/06/01 06:02:32;;;;;;;20.73;6.85;;;14.80;99.90;;;;;;5027824;28;20037;-76
2022/06/01 06:04:57;;;;;;;9.18;6.22;;;14.90;99.90;;;;;;5027527;28;20114;-75
2022/06/01 06:07:23;;;;;;;11.52;6.10;;;15.00;99.90;;;;;;5028576;28;20030;-77
2022/06/01 06:09:48;;;;;;;12.30;6.15;;;15.20;99.90;;;;;;5027859;28;20483;-75
2022/06/01 06:12:14;;;;;;;13.48;6.05;;;15.40;99.90;;;;;;5028341;28;20616;-74
2022/06/01 06:14:40;;;;;;;9.55;5.68;;;15.50;99.90;;;;;;5027570;28;20060;-75
2022/06/01 06:17:06;;;;;;;8.85;5.22;;;15.60;99.90;;;;;;5028342;28;20366;-77
2022/06/01 06:19:32;;;;;;;9.55;5.40;;;15.80;99.90;;;;;;5027790;28;20034;-76
2022/06/01 06:21:57;;;;;;;9.50;5.43;;;16.00;99.90;;;;;;5010345;28;20034;-75
2022/06/01 06:24:23;;;;;;;10.95;5.53;;;16.00;99.90;;;;;;5032469;28;20026;-75
2022/06/01 06:26:49;;;;;;;14.07;5.47;;;16.20;99.90;;;;;;5032135;28;20022;-75
2022/06/01 06:29:19;;;;;;;12.43;6.57;;;16.30;99.90;;;;;;5031920;28;20052;-75
2022/06/01 06:31:44;;;;;;;9.30;4.82;;;16.40;99.90;;;;;;5031620;28;20053;-75
2022/06/01 06:34:10;;;;;;;9.32;5.38;;;16.60;99.90;;;;;;5013923;28;20065;-75
2022/06/01 06:36:36;;;;;;;9.85;5.22;;;16.70;99.90;;;;;;5011806;28;20340;-77
2022/06/01 06:39:02;;;;;;;17.30;5.20;;;16.80;99.90;;;;;;5032481;28;20473;-76
2022/06/01 06:41:28;;;;;;;9.48;4.93;;;17.00;99.90;;;;;;5031851;28;20099;-75
2022/06/01 06:43:54;;;;;;;11.30;4.22;;;17.00;99.90;;;;;;5030858;28;20029;-77
2022/06/01 06:46:22;;;;;;;9.00;3.78;;;17.00;99.90;;;;;;5032418;28;20032;-76
2022/06/01 06:48:49;;;;;;;9.82;4.10;;;17.00;99.90;;;;;;5031636;28;20077;-77
2022/06/01 06:51:15;;;;;;;9.82;4.00;;;17.10;99.90;;;;;;5013551;28;20655;-76
2022/06/01 06:53:41;;;;;;;6.70;3.80;;;17.10;99.90;;;;;;5031148;28;20034;-77
2022/06/01 06:56:07;;;;;;;8.80;3.63;;;17.20;99.90;;;;;;5032314;28;20037;-76
2022/06/01 06:58:34;;;;;;;5.90;3.53;;;17.50;99.90;;;;;;5031974;28;20033;-74
2022/06/01 07:01:00;;;;;;;8.73;3.28;;;17.70;99.90;;;;;;5013723;28;20025;-76
2022/06/01 07:03:25;;;;;;;5.45;3.53;;;17.90;99.90;;;;;;5031712;28;20037;-74
2022/06/01 07:08:52;;;;;;;5.97;3.45;;;18.20;99.90;;;;;;5007629;28;20045;-76
2022/06/01 07:11:20;;;;;;;6.88;3.17;;;18.30;99.90;;;;;;5013896;28;20517;-77
2022/06/01 07:13:50;;;;;;;6.72;3.28;;;18.30;99.90;;;;;;5030921;28;20112;-76
2022/06/01 07:16:26;;;;;;;4.53;2.92;;;18.60;99.90;;;;;;5031818;28;20021;-75
2022/06/01 07:18:53;;;;;;;5.45;3.13;;;18.60;99.90;;;;;;5030210;28;20038;-76
2022/06/01 07:21:20;;;;;;;3.72;2.55;;;18.70;99.90;;;;;;5031461;28;20030;-75
2022/06/01 07:23:46;;;;;;;10.15;3.10;;;18.70;99.90;;;;;;5029236;28;20033;-76
2022/06/01 07:26:18;;;;;;;5.78;3.10;;;18.70;99.90;;;;;;5028464;28;20044;-75
2022/06/01 07:28:44;;;;;;;5.28;2.72;;;19.00;99.90;;;;;;5013062;28;20485;-74
2022/06/01 07:31:11;;;;;;;4.32;3.03;;;19.00;99.90;;;;;;5031243;28;20045;-77
2022/06/01 07:33:37;;;;;;;5.25;2.78;;;19.00;99.90;;;;;;5031014;28;20048;-78
2022/06/01 07:36:06;;;;;;;4.18;2.45;;;19.00;99.90;;;;;;5012551;28;20052;-76
2022/06/01 07:44:08;;;;;;;7.15;3.00;;;18.90;99.90;;;;;;5031354;28;20079;-77
2022/06/01 07:46:37;;;;;;;6.20;2.92;;;19.00;99.90;;;;;;5031306;28;20060;-75
2022/06/01 07:49:07;;;;;;;9.88;3.10;;;19.10;99.90;;;;;;5030750;28;20042;-75
2022/06/01 07:51:34;;;;;;;18.02;3.08;;;19.20;99.90;;;;;;5030573;28;20086;-75
2022/06/01 07:53:59;;;;;;;4.63;2.63;;;19.20;99.90;;;;;;5029234;28;20037;-76
2022/06/01 07:56:25;;;;;;;6.88;3.10;;;19.20;99.90;;;;;;5030667;28;20035;-75
2022/06/01 07:58:51;;;;;;;4.40;2.70;;;19.30;99.90;;;;;;5029637;28;20021;-76
2022/06/01 08:01:21;;;;;;;8.30;3.30;;;19.30;99.90;;;;;;5030943;28;20708;-75
2022/06/01 08:03:47;;;;;;;6.32;3.00;;;19.30;99.90;;;;;;5030222;28;20120;-76
2022/06/01 08:06:14;;;;;;;4.60;2.85;;;19.40;99.90;;;;;;5013185;28;20034;-77
2022/06/01 08:08:39;;;;;;;4.75;2.75;;;19.40;99.90;;;;;;5012616;28;20025;-78
2022/06/01 08:11:05;;;;;;;5.68;2.83;;;19.50;99.90;;;;;;5030605;28;20029;-77
2022/06/01 08:13:31;;;;;;;3.40;2.67;;;19.70;99.90;;;;;;5030790;28;20082;-77
2022/06/01 08:15:56;;;;;;;7.43;2.80;;;19.70;99.90;;;;;;5011948;28;20034;-74
2022/06/01 08:18:24;;;;;;;4.05;2.63;;;19.70;99.90;;;;;;5030243;28;20040;-76
2022/06/01 08:20:51;;;;;;;11.48;3.05;;;19.60;99.90;;;;;;5030156;28;20044;-75
2022/06/01 08:23:18;;;;;;;10.27;3.05;;;19.70;99.90;;;;;;5029961;28;20041;-74
2022/06/01 08:25:45;;;;;;;4.40;2.90;;;19.80;99.90;;;;;;5029804;28;20048;-75
2022/06/01 08:28:11;;;;;;;5.57;3.20;;;19.90;99.90;;;;;;5030476;28;20029;-74
2022/06/01 08:30:39;;;;;;;6.22;3.10;;;20.00;99.90;;;;;;5012577;28;20077;-76
2022/06/01 08:33:08;;;;;;;7.03;2.53;;;20.00;99.90;;;;;;5029303;28;20079;-75
2022/06/01 08:35:39;;;;;;;4.05;2.35;;;20.10;98.70;;;;;;5012335;28;20033;-75
2022/06/01 08:38:05;;;;;;;6.13;2.78;;;20.20;98.50;;;;;;5028652;28;20059;-74
2022/06/01 08:40:46;;;;;;;6.47;2.40;;;20.20;97.90;;;;;;5027808;28;20057;-78
2022/06/01 08:43:15;;;;;;;3.63;2.00;;;20.40;99.60;;;;;;5030263;28;20141;-76
2022/06/01 08:45:46;;;;;;;2.75;1.60;;;20.50;94.40;;;;;;5029597;28;20034;-78
2022/06/01 08:48:18;;;;;;;5.35;2.17;;;20.50;92.60;;;;;;5029154;28;20029;-77
2022/06/01 08:50:43;;;;;;;6.38;2.00;;;20.50;92.10;;;;;;5028906;28;20401;-79
2022/06/01 08:53:09;;;;;;;11.68;2.15;;;20.30;91.40;;;;;;5028764;28;20037;-76
2022/06/01 08:55:53;;;;;;;2.40;1.77;;;20.30;91.00;;;;;;5011213;28;20474;-74
2022/06/01 08:58:26;;;;;;;4.13;1.98;;;20.70;93.60;;;;;;5029888;28;20033;-77
2022/06/01 09:01:05;;;;;;;9.75;2.25;;;21.00;92.00;;;;;;5028942;28;20033;-76
2022/06/01 09:03:52;;;;;;;7.78;2.60;;;21.20;91.40;;;;;;5029460;28;20165;-76
2022/06/01 09:06:26;;;;;;;4.47;2.10;;;20.90;91.20;;;;;;5012040;28;20079;-75
2022/06/01 09:09:13;;;;;;;4.40;1.50;;;21.00;93.30;;;;;;5167115;27;20752;-75
2022/06/01 09:11:43;;;;;;;4.82;1.52;;;21.10;90.20;;;;;;5144655;27;20034;-75
2022/06/01 09:14:32;;;;;;;4.30;1.73;;;21.00;73.00;;;;;;5147357;27;20027;-77
2022/06/01 09:16:59;;;;;;;8.27;2.13;;;20.70;75.10;;;;;;5146990;27;20113;-77
2022/06/01 09:22:37;;;;;;;5.05;1.60;;;20.70;83.30;;;;;;5147231;27;20042;-78
2022/06/01 09:25:00;;;;;;;4.30;1.55;;;21.00;75.00;;;;;;5145717;27;20038;-74
2022/06/01 09:27:48;;;;;;;6.43;1.85;;;21.00;72.90;;;;;;5147429;27;20031;-73
2022/06/01 09:30:31;;;;;;;3.72;1.50;;;21.10;72.90;;;;;;5147590;27;20035;-75
2022/06/01 09:33:24;;;;;;;2.40;1.60;;;21.10;72.90;;;;;;5146182;27;20093;-76
2022/06/01 09:36:06;;;;;;;5.03;1.63;;;21.10;72.90;;;;;;5143288;27;20031;-77
2022/06/01 09:38:54;;;;;;;9.07;1.80;;;21.10;67.10;;;;;;5133770;27;20077;-75
2022/06/01 09:41:23;;;;;;;6.70;1.80;;;20.90;72.40;;;;;;5146385;27;20030;-76
2022/06/01 09:44:00;;;;;;;2.80;1.65;;;21.10;74.40;;;;;;5146452;27;20027;-77
2022/06/01 09:46:48;;;;;;;2.53;1.50;;;21.00;67.20;;;;;;5147385;27;20106;-77
2022/06/01 09:49:36;;;;;;;2.30;1.40;;;21.30;65.50;;;;;;5147101;27;20038;-76
2022/06/01 09:52:24;;;;;;;5.22;1.80;;;21.70;69.20;;;;;;5127852;27;20034;-76
2022/06/01 09:54:56;;;;;;;4.47;1.70;;;21.60;71.80;;;;;;5145311;27;20344;-74
2022/06/01 09:57:27;;;;;;;3.35;1.77;;;21.50;68.50;;;;;;5146999;27;20034;-75
2022/06/01 10:08:23;;;;;;;3.92;1.98;;;21.50;66.10;;;;;;5146600;27;20224;-76
2022/06/01 10:11:01;;;;;;;4.03;1.60;;;21.60;73.70;;;;;;5143890;27;20440;-76
2022/06/01 10:13:52;;;;;;;3.88;1.80;;;21.60;68.00;;;;;;5145215;27;20034;-78
2022/06/01 10:16:24;;;;;;;2.92;1.80;;;21.10;68.90;;;;;;5115874;27;20039;-77
2022/06/01 10:18:53;;;;;;;3.97;1.90;;;20.80;75.70;;;;;;5140512;27;20039;-79
2022/06/01 10:21:23;;;;;;;5.18;1.80;;;21.10;73.70;;;;;;5114099;27;20027;-75
2022/06/01 10:24:08;;;;;;;5.57;2.13;;;21.50;72.80;;;;;;5113611;27;20054;-81
2022/06/01 10:26:38;;;;;;;5.85;2.10;;;21.60;71.30;;;;;;5132149;27;20027;-74
2022/06/01 10:29:08;;;;;;;6.53;1.70;;;21.40;71.00;;;;;;5131727;27;20059;-76
2022/06/01 10:31:45;;;;;;;2.45;1.77;;;21.60;73.60;;;;;;5130819;27;20027;-73
2022/06/01 10:34:45;;;;;;;4.30;2.05;;;22.00;73.20;;;;;;5130806;27;20118;-77
2022/06/01 10:37:20;;;;;;;7.40;2.35;;;21.60;71.10;;;;;;5130099;27;20468;-75
2022/06/01 10:39:53;;;;;;;8.07;2.58;;;21.80;71.80;;;;;;5132402;27;20031;-75
2022/06/01 10:43:16;;;;;;;6.95;2.10;;;21.60;73.10;;;;;;5132228;27;20038;-74
2022/06/01 10:45:16;;;;;;;5.53;2.25;;;21.60;71.20;;;;;;5131760;27;20040;-74
2022/06/01 10:48:19;;;;;;;5.75;2.22;;;21.60;69.10;;;;;;5131439;27;20099;-75
2022/06/01 10:51:13;;;;;;;4.50;2.10;;;21.40;70.10;;;;;;5131987;27;20031;-76
2022/06/01 10:53:59;;;;;;;4.65;1.73;;;21.60;69.70;;;;;;5131719;27;20016;-76
2022/06/01 10:56:26;;;;;;;8.43;2.30;;;21.20;68.00;;;;;;5113450;27;20058;-76
2022/06/01 10:58:59;;;;;;;3.65;1.92;;;20.80;68.30;;;;;;5112674;27;20039;-76
2022/06/01 11:01:36;;;;;;;4.70;2.05;;;20.80;71.70;;;;;;5130745;27;20011;-71
2022/06/01 11:04:23;;;;;;;3.15;2.35;;;21.10;72.00;;;;;;5131082;27;20164;-75
2022/06/01 11:06:55;;;;;;;5.28;2.53;;;21.20;74.40;;;;;;5131036;27;20076;-77
2022/06/01 11:09:56;;;;;;;3.38;2.40;;;21.20;75.20;;;;;;5131875;27;20026;-76
2022/06/01 11:12:44;;;;;;;3.13;2.33;;;21.30;80.80;;;;;;5129857;27;20514;-75
2022/06/01 11:15:24;;;;;;;5.70;2.63;;;21.70;80.00;;;;;;5130950;27;20099;-74
2022/06/01 11:18:02;;;;;;;6.13;2.80;;;22.20;79.90;;;;;;5131025;27;20443;-77
2022/06/01 11:20:49;;;;;;;4.03;2.80;;;22.50;73.20;;;;;;5111118;28;20035;-75
2022/06/01 11:23:33;;;;;;;9.43;2.60;;;22.50;77.30;;;;;;5110881;28;20038;-74
2022/06/01 11:26:17;;;;;;;6.05;2.50;;;22.30;72.80;;;;;;5111587;27;20031;-76
2022/06/01 11:29:06;;;;;;;5.57;2.70;;;22.40;73.90;;;;;;5110839;28;20480;-76
2022/06/01 11:31:34;;;;;;;6.03;2.90;;;22.50;72.10;;;;;;5110006;28;20124;-74
2022/06/01 11:34:44;;;;;;;5.00;2.65;;;22.90;73.00;;;;;;5109972;28;20027;-73
2022/06/01 11:37:16;;;;;;;;;;;23.00;69.90;;;;;;5100158;27;20132;-75
2022/06/01 11:40:02;;;;;;;4.95;2.53;;;23.00;73.20;;;;;;5129447;27;20029;-75
2022/06/01 11:42:35;;;;;;;2.83;2.35;;;22.60;70.50;;;;;;5130638;27;20027;-74
2022/06/01 11:45:03;;;;;;;4.90;2.35;;;22.30;71.10;;;;;;5109779;28;20020;-74
2022/06/01 11:47:41;;;;;;;9.45;2.60;;;22.40;72.00;;;;;;5110667;28;20353;-74
2022/06/01 11:50:13;;;;;;;3.80;2.40;;;22.40;68.50;;;;;;5109677;28;20028;-73
2022/06/01 11:52:51;;;;;;;4.78;2.20;;;22.40;69.30;;;;;;5125320;27;20034;-75
2022/06/01 11:55:24;;;;;;;3.78;2.50;;;22.50;69.70;;;;;;5130464;27;20030;-73
2022/06/01 11:58:11;;;;;;;9.70;2.25;;;22.20;68.50;;;;;;5131029;27;20046;-73
2022/06/01 12:00:47;;;;;;;4.20;2.30;;;22.10;68.90;;;;;;5130182;27;20573;-73
2022/06/01 12:03:24;;;;;;;2.42;2.03;;;21.70;70.20;;;;;;5129779;27;20612;-72
2022/06/01 12:06:15;;;;;;;3.75;2.10;;;21.50;70.40;;;;;;5130787;27;20068;-73
2022/06/01 12:08:50;;;;;;;5.30;2.58;;;21.50;70.70;;;;;;5111157;27;20139;-72
2022/06/01 12:11:41;;;;;;;4.10;2.00;;;21.80;69.90;;;;;;5129869;27;20874;-74
2022/06/01 12:14:34;;;;;;;2.80;1.90;;;22.00;69.20;;;;;;5129559;27;20034;-74
2022/06/01 12:17:18;;;;;;;3.58;1.98;;;21.70;67.20;;;;;;5129729;27;20023;-74
2022/06/01 12:19:49;;;;;;;4.50;2.53;;;21.60;73.10;;;;;;5130488;27;20027;-74
2022/06/01 12:28:35;;;;;;;4.05;2.65;;;23.20;70.10;;;;;;5125148;27;20540;-76
2022/06/01 12:31:16;;;;;;;4.55;2.33;;;23.40;69.50;;;;;;5127930;27;20422;-72
2022/06/01 12:34:03;;;;;;;3.50;2.22;;;23.50;62.20;;;;;;5111722;27;20045;-72
2022/06/01 12:36:53;;;;;;;3.13;2.40;;;23.50;62.40;;;;;;5125218;27;20102;-74
2022/06/01 12:39:39;;;;;;;3.15;2.08;;;23.70;65.40;;;;;;5116627;27;20487;-76
2022/06/01 12:42:34;;;;;;;5.25;2.10;;;23.50;62.00;;;;;;5126079;27;20076;-72
2022/06/01 12:45:03;;;;;;;6.28;1.85;;;23.80;62.40;;;;;;5122309;27;20027;-75
2022/06/01 12:47:36;;;;;;;4.55;1.90;;;23.70;60.70;;;;;;5126813;27;20046;-75
2022/06/01 12:50:16;;;;;;;4.18;1.95;;;24.00;66.20;;;;;;5128289;27;20031;-74
2022/06/01 12:52:43;;;;;;;4.30;2.05;;;23.40;57.60;;;;;;5126628;27;20809;-76
2022/06/01 12:55:13;;;;;;;4.35;1.90;;;22.80;60.60;;;;;;5110492;27;20035;-77
2022/06/01 12:57:55;;;;;;;3.80;1.80;;;22.60;61.60;;;;;;5128665;27;20027;-74
2022/06/01 13:00:31;;;;;;;3.05;1.90;;;22.10;60.10;;;;;;5108509;27;20058;-73
2022/06/01 13:02:57;;;;;;;3.67;1.90;;;22.00;63.20;;;;;;5121719;27;20034;-78
2022/06/01 13:05:27;;;;;;;5.60;1.98;;;21.80;65.30;;;;;;5128831;27;20027;-72
2022/06/01 13:07:59;;;;;;;8.20;2.00;;;21.90;67.00;;;;;;5129472;28;20065;-75
2022/06/01 13:10:33;;;;;;;2.58;1.90;;;21.90;61.00;;;;;;5129286;28;20019;-73
2022/06/01 13:13:11;;;;;;;2.35;1.75;;;22.20;61.70;;;;;;5126808;28;20057;-75
2022/06/01 13:15:39;;;;;;;4.18;1.90;;;22.50;63.30;;;;;;5126809;28;20027;-75
2022/06/01 13:18:12;;;;;;;3.38;1.60;;;22.40;62.30;;;;;;5128594;28;20028;-74
2022/06/01 13:20:42;;;;;;;4.85;1.70;;;22.40;59.60;;;;;;5126477;28;20091;-76
2022/06/01 13:23:58;;;;;;;3.03;1.92;;;22.30;62.20;;;;;;5128337;28;20391;-72
2022/06/01 13:26:33;;;;;;;6.05;2.10;;;22.30;63.10;;;;;;5091965;28;20045;-72
2022/06/01 13:29:17;;;;;;;4.40;2.00;;;22.30;63.80;;;;;;5108701;28;20486;-77
2022/06/01 13:31:45;;;;;;;5.20;1.77;;;22.40;61.40;;;;;;5122156;28;20035;-72
2022/06/01 13:34:20;;;;;;;3.97;2.00;;;22.40;60.50;;;;;;5128843;28;20492;-72
2022/06/01 13:36:48;;;;;;;8.48;1.80;;;22.30;61.00;;;;;;5110690;28;20019;-71
2022/06/01 13:39:14;;;;;;;4.78;1.77;;;22.50;63.10;;;;;;5128504;28;20100;-73
2022/06/01 13:41:53;;;;;;;3.55;1.60;;;22.50;62.60;;;;;;5129352;28;20031;-74
2022/06/01 13:44:43;;;;;;;2.75;1.77;;;22.70;65.10;;;;;;5110522;28;20475;-73